Main page
METAR-TAF:

METAR-TAF

Airports :

Harbin, China

Harbin Taiping International Airport

latitude: 45-45N, longitude: 126-46E, elevation: 143 m

Current weather observation

The report was made 59 minutes ago, at 04:00 UTC
Wind 6 kt from the South/Southeast, varying between East/Southeast and South
Temperature 28°C
Humidity 42%
Pressure 1009 hPa
Visibility 10 km or more
no clouds below 1500 m and no cumulonimbus

METAR: ZYHB 220400Z 16003MPS 110V190 CAVOK 28/14 Q1009 NOSIG

Time: 12:59 (04:59 UTC)

Forecast

The report was made 9 hours and 51 minutes ago, at 19:08 UTC
Forecast valid from 22 at 00 UTC to 22 at 24 UTC
Wind 6 kt from the South
Visibility: 5000 m
Scattered clouds at a height of 2600 ft
mist
Temporary
from 22 at 00 UTC to 22 at 06 UTC
Few clouds at a height of 2000 ft, Cumulonimbus.
Broken clouds at a height of 2300 ft

TAF: ZYHB 211908Z 2200/2224 17003MPS 5000 BR SCT026 TX30/2206Z TN19/2220Z TEMPO 2200/2206 FEW020CB BKN023

Weather observations and forecasts of more than 4000 airports (METAR and TAF reports).

The available stations are represented by yellow and red dots on the map.

Hover mouse over dot to see the name of the station.

Then click to see weather observations and forecasts.

To change the map : click on the green buttons with a black cross to zoom in, on the green button with a dash to zoom out, or on the green arrows for adjacent maps.


METAR-TAF: